Spearville, Kansas
Current Conditions -  °F | °C
As of 7:33 AM on Tuesday 21 Oct 2014 (Local Time) from KDDC Reporting Station
Moderate Fog Moderate Fog  
Wind Chill: 54°   Ceiling: 100
Heat Index: 54°   Visibility: 0.25mi
Dew Point: 53°   Wind: 7mph
Humidity: 97%   Direction: 140°SE
Pressure: 30.07"   Gusts: NA
Location:  37.85°N, 99.76°W
Report Text: KDDC 211233Z AUTO 14006KT 1/4SM FG VV001 12/12 A3007 RMK AO2 T01220117
Loading
Personal Weather Stations






























Interactive Weather Map
Tropical Storm Tracking
New forecast layout! Learn more

10-Day Weather Forecast

Advertisements
Track Severe Weather on mobile